Time;durP1;ratioP1;P1;durP2;ratioP2;P2;SDS_P1;SDS_P2;PMS_P1;PMS_P2;Temp;Humidity;BMP_temperature;BMP_pressure;BME280_temperature;BME280_humidity;BME280_pressure;Samples;Min_cycle;Max_cycle;Signal;HPM_P1;HPM_P2
2022/09/04 00:02:47;;;;;;;3.13;2.50;;;14.70;99.90;;;;;;5116071;28;20042;-75
2022/09/04 00:05:28;;;;;;;2.60;2.40;;;14.80;99.90;;;;;;5096201;28;20020;-77
2022/09/04 00:08:11;;;;;;;3.05;2.80;;;14.60;99.90;;;;;;5095426;28;20106;-76
2022/09/04 00:10:54;;;;;;;3.92;3.30;;;14.60;99.90;;;;;;5095440;28;20036;-76
2022/09/04 00:13:22;;;;;;;3.58;2.70;;;14.50;99.90;;;;;;5095920;28;20032;-75
2022/09/04 00:16:22;;;;;;;4.40;2.70;;;14.50;99.90;;;;;;5111888;28;20160;-76
2022/09/04 00:19:01;;;;;;;4.47;2.92;;;14.50;99.90;;;;;;5061659;28;20111;-76
2022/09/04 00:21:53;;;;;;;4.55;2.50;;;14.50;99.90;;;;;;5116137;28;20353;-76
2022/09/04 00:24:26;;;;;;;4.05;2.63;;;14.40;99.90;;;;;;5115837;28;20430;-76
2022/09/04 00:27:04;;;;;;;5.43;2.25;;;14.50;99.90;;;;;;5116012;28;20032;-76
2022/09/04 00:29:55;;;;;;;3.10;2.80;;;14.60;99.90;;;;;;5115869;28;20035;-75
2022/09/04 00:32:43;;;;;;;3.40;2.40;;;14.50;99.90;;;;;;5122657;22;20112;-76
2022/09/04 00:35:30;;;;;;;7.88;2.75;;;14.50;99.90;;;;;;5043449;28;20026;-76
2022/09/04 00:38:04;;;;;;;3.55;2.30;;;14.50;99.90;;;;;;5033760;28;20043;-76
2022/09/04 00:40:36;;;;;;;3.50;2.40;;;14.60;99.90;;;;;;5035123;28;20037;-76
2022/09/04 00:43:32;;;;;;;2.53;2.10;;;14.60;99.90;;;;;;5060548;28;20367;-77
2022/09/04 00:46:42;;;;;;;3.42;2.30;;;14.70;99.90;;;;;;5057828;28;20032;-77
2022/09/04 00:49:23;;;;;;;;;;;14.60;99.90;;;;;;5030226;28;20115;-76
2022/09/04 00:52:08;;;;;;;;;;;14.50;99.90;;;;;;5035395;28;19992;-76
2022/09/04 00:55:05;;;;;;;4.03;2.40;;;14.50;99.90;;;;;;5034873;28;19958;-76
2022/09/04 00:57:50;;;;;;;3.47;2.45;;;14.30;99.90;;;;;;5074162;28;20116;-76
2022/09/04 01:00:20;;;;;;;5.28;2.70;;;14.20;99.90;;;;;;5074522;28;20059;-76
2022/09/04 01:02:54;;;;;;;3.17;2.15;;;14.20;99.90;;;;;;5069427;28;20021;-76
2022/09/04 01:05:44;;;;;;;2.80;2.40;;;14.20;99.90;;;;;;5054916;28;20040;-73
2022/09/04 01:08:24;;;;;;;2.70;2.50;;;14.10;99.90;;;;;;5054967;28;20532;-73
2022/09/04 01:11:15;;;;;;;2.55;2.35;;;13.90;99.90;;;;;;5055042;28;20025;-73
2022/09/04 01:14:08;;;;;;;2.70;2.50;;;14.00;99.90;;;;;;5056225;28;20025;-74
2022/09/04 01:16:45;;;;;;;2.80;2.45;;;13.80;99.90;;;;;;5073146;28;20013;-74
2022/09/04 01:19:53;;;;;;;3.35;2.45;;;13.80;99.90;;;;;;5074947;28;20021;-74
2022/09/04 01:22:28;;;;;;;4.57;2.60;;;13.80;99.90;;;;;;5074504;28;20120;-74
2022/09/04 01:25:19;;;;;;;2.50;2.30;;;13.70;99.90;;;;;;5050384;28;20017;-73
2022/09/04 01:28:14;;;;;;;4.20;2.40;;;13.60;99.90;;;;;;5050619;28;20021;-74
2022/09/04 01:30:49;;;;;;;4.28;2.80;;;13.50;99.90;;;;;;4971940;28;20422;-75
2022/09/04 01:33:29;;;;;;;4.25;2.28;;;13.60;99.90;;;;;;5073119;28;20104;-75
2022/09/04 01:36:03;;;;;;;3.20;2.93;;;13.60;99.90;;;;;;5073177;28;20471;-75
2022/09/04 01:38:46;;;;;;;4.03;2.60;;;13.50;99.90;;;;;;5073471;28;20257;-75
2022/09/04 01:41:22;;;;;;;4.50;2.60;;;13.40;99.90;;;;;;5061995;28;20021;-75
2022/09/04 01:43:47;;;;;;;2.65;2.45;;;13.40;99.90;;;;;;5067790;28;20060;-75
2022/09/04 01:46:37;;;;;;;3.22;2.90;;;13.40;99.90;;;;;;5053300;28;20045;-75
2022/09/04 01:49:13;;;;;;;3.97;2.97;;;13.40;99.90;;;;;;5054265;28;20047;-75
2022/09/04 01:52:06;;;;;;;4.63;3.00;;;13.40;99.90;;;;;;5035272;28;20084;-75
2022/09/04 01:55:06;;;;;;;4.95;2.72;;;13.30;99.90;;;;;;5052782;28;20126;-75
2022/09/04 01:57:56;;;;;;;4.28;2.70;;;13.20;99.90;;;;;;5055865;28;20028;-75
2022/09/04 02:00:23;;;;;;;;;;;13.30;99.90;;;;;;5060975;28;20104;-75
2022/09/04 02:03:02;;;;;;;2.90;2.70;;;13.30;99.90;;;;;;5053314;28;19940;-75
2022/09/04 02:05:43;;;;;;;3.10;2.90;;;13.30;99.90;;;;;;5053296;28;20019;-75
2022/09/04 02:08:14;;;;;;;3.03;2.65;;;13.40;99.90;;;;;;5052856;28;20022;-75
2022/09/04 02:11:00;;;;;;;4.10;2.97;;;13.30;99.90;;;;;;5053414;28;20040;-75
2022/09/04 02:13:55;;;;;;;3.20;2.92;;;13.30;99.90;;;;;;5067019;28;20036;-75
2022/09/04 02:16:33;;;;;;;4.93;2.97;;;13.30;99.90;;;;;;5064576;28;20023;-75
2022/09/04 02:19:16;;;;;;;3.45;2.80;;;13.20;99.90;;;;;;5073089;28;20048;-75
2022/09/04 02:21:49;;;;;;;3.40;2.80;;;13.10;99.90;;;;;;5071281;28;20086;-75
2022/09/04 02:24:49;;;;;;;4.30;3.05;;;13.20;99.90;;;;;;5053280;28;20116;-75
2022/09/04 02:27:31;;;;;;;4.30;2.85;;;13.20;99.90;;;;;;5054128;28;20108;-75
2022/09/04 02:30:04;;;;;;;3.70;2.90;;;13.20;99.90;;;;;;5055246;28;20033;-75
2022/09/04 02:32:43;;;;;;;3.17;2.67;;;13.30;99.90;;;;;;5071872;28;20056;-75
2022/09/04 02:35:34;;;;;;;3.20;2.90;;;13.20;99.90;;;;;;5072270;28;20119;-75
2022/09/04 02:38:18;;;;;;;3.13;2.90;;;13.10;99.90;;;;;;5070368;28;20822;-75
2022/09/04 02:41:10;;;;;;;4.88;3.05;;;13.00;99.90;;;;;;5053341;28;20070;-75
2022/09/04 02:44:01;;;;;;;3.97;3.17;;;13.10;99.90;;;;;;5052811;28;20495;-75
2022/09/04 02:46:52;;;;;;;4.13;3.00;;;13.00;99.90;;;;;;5034701;28;20033;-75
2022/09/04 02:49:29;;;;;;;3.53;3.22;;;13.10;99.90;;;;;;5045324;28;20045;-75
2022/09/04 02:52:16;;;;;;;3.95;3.05;;;13.10;99.90;;;;;;5052382;28;20028;-75
2022/09/04 02:55:18;;;;;;;5.05;2.80;;;13.20;99.90;;;;;;5051816;28;20083;-75
2022/09/04 02:58:14;;;;;;;3.95;3.10;;;13.10;99.90;;;;;;5056737;28;20017;-75
2022/09/04 03:00:56;;;;;;;4.97;2.97;;;12.90;99.90;;;;;;5057790;28;20032;-75
2022/09/04 03:03:36;;;;;;;4.55;3.00;;;12.90;99.90;;;;;;5034426;28;20048;-75
2022/09/04 03:06:31;;;;;;;5.53;3.05;;;13.00;99.90;;;;;;5034800;28;20071;-75
2022/09/04 03:09:03;;;;;;;3.58;3.00;;;12.90;99.90;;;;;;5052886;28;20348;-75
2022/09/04 03:11:39;;;;;;;3.40;3.10;;;12.80;99.90;;;;;;5052627;28;20127;-75
2022/09/04 03:14:15;;;;;;;3.25;2.78;;;13.00;99.90;;;;;;5035304;28;20035;-74
2022/09/04 03:16:49;;;;;;;3.75;3.45;;;12.80;99.90;;;;;;5052752;28;20455;-75
2022/09/04 03:19:25;;;;;;;3.35;3.00;;;12.80;99.90;;;;;;5053772;28;20029;-75
2022/09/04 03:21:53;;;;;;;5.00;3.45;;;12.80;99.90;;;;;;5055463;28;20044;-75
2022/09/04 03:24:28;;;;;;;3.20;3.00;;;12.80;99.90;;;;;;5055880;28;20017;-75
2022/09/04 03:27:09;;;;;;;4.88;3.50;;;12.80;99.90;;;;;;5056712;28;20044;-75
2022/09/04 03:29:50;;;;;;;4.25;3.30;;;12.70;99.90;;;;;;5055457;28;20071;-75
2022/09/04 03:32:27;;;;;;;4.00;3.45;;;12.60;99.90;;;;;;5054754;28;20636;-75
2022/09/04 03:35:14;;;;;;;5.30;3.25;;;12.70;99.90;;;;;;5054658;28;20021;-75
2022/09/04 03:37:48;;;;;;;3.55;3.25;;;12.70;99.90;;;;;;5054768;28;20017;-75
2022/09/04 03:40:35;;;;;;;3.83;3.20;;;12.70;99.90;;;;;;5036896;28;20095;-75
2022/09/04 03:43:19;;;;;;;3.72;3.42;;;12.70;99.90;;;;;;5055178;28;20025;-75
2022/09/04 03:46:09;;;;;;;5.22;3.13;;;12.60;99.90;;;;;;5055050;28;20049;-75
2022/09/04 03:49:00;;;;;;;;;;;12.60;99.90;;;;;;5037335;28;20037;-75
2022/09/04 03:51:42;;;;;;;5.60;3.47;;;12.60;99.90;;;;;;5054757;28;19943;-75
2022/09/04 03:54:27;;;;;;;4.97;4.50;;;12.60;99.90;;;;;;5054506;28;20063;-75
2022/09/04 03:57:06;;;;;;;3.80;3.50;;;12.70;99.90;;;;;;5055070;28;20016;-75
2022/09/04 04:00:08;;;;;;;3.42;3.13;;;12.60;99.90;;;;;;5055592;28;20047;-75
2022/09/04 04:03:11;;;;;;;4.15;3.67;;;12.50;99.90;;;;;;5037162;28;20044;-74
2022/09/04 04:05:48;;;;;;;5.85;3.70;;;12.60;99.90;;;;;;5055498;28;20476;-75
2022/09/04 04:08:39;;;;;;;11.40;3.88;;;12.60;99.90;;;;;;5047393;28;20025;-75
2022/09/04 04:11:44;;;;;;;4.30;3.72;;;12.50;99.90;;;;;;5068610;28;20025;-75
2022/09/04 04:14:28;;;;;;;6.32;4.10;;;12.60;99.90;;;;;;5054301;28;20398;-75
2022/09/04 04:16:56;;;;;;;4.80;4.00;;;12.60;99.90;;;;;;5060142;28;20360;-75
2022/09/04 04:19:32;;;;;;;4.50;3.70;;;12.60;99.90;;;;;;5056857;28;20048;-75
2022/09/04 04:22:24;;;;;;;5.25;4.07;;;12.50;99.90;;;;;;5062040;28;20029;-74
2022/09/04 04:25:02;;;;;;;6.65;4.15;;;12.40;99.90;;;;;;5042123;28;20036;-74
2022/09/04 04:27:46;;;;;;;5.47;4.40;;;12.30;99.90;;;;;;5077637;28;20111;-74
2022/09/04 04:30:18;;;;;;;4.82;4.03;;;12.40;99.90;;;;;;5073289;28;20085;-74
2022/09/04 04:33:12;;;;;;;4.18;3.88;;;12.40;99.90;;;;;;5059807;28;20131;-74
2022/09/04 04:35:44;;;;;;;4.82;3.97;;;12.40;99.90;;;;;;5072878;28;20035;-74
2022/09/04 04:38:26;;;;;;;4.28;3.90;;;12.40;99.90;;;;;;5073463;28;20047;-74
2022/09/04 04:41:03;;;;;;;4.28;3.70;;;12.40;99.90;;;;;;5074070;28;20024;-74
2022/09/04 04:43:38;;;;;;;4.75;4.35;;;12.30;99.90;;;;;;5074156;28;20035;-74
2022/09/04 04:46:21;;;;;;;4.75;4.25;;;12.40;99.90;;;;;;5074271;28;20027;-74
2022/09/04 04:49:11;;;;;;;4.32;3.88;;;12.50;99.90;;;;;;5072623;28;20380;-74
2022/09/04 04:52:01;;;;;;;4.43;4.03;;;12.60;99.90;;;;;;5053747;28;20479;-74
2022/09/04 04:54:51;;;;;;;4.88;4.13;;;12.50;99.90;;;;;;5053726;28;20033;-75
2022/09/04 04:57:45;;;;;;;4.63;4.10;;;12.60;99.90;;;;;;5053467;28;20099;-74
2022/09/04 05:00:18;;;;;;;7.15;4.13;;;12.50;99.90;;;;;;5053256;28;20103;-74
2022/09/04 05:03:02;;;;;;;5.45;4.20;;;12.50;99.90;;;;;;5053153;28;20071;-74
2022/09/04 05:06:22;;;;;;;5.45;4.00;;;12.60;99.90;;;;;;5053292;28;20092;-74
2022/09/04 05:09:04;;;;;;;5.18;4.07;;;12.60;99.90;;;;;;4952519;28;20031;-74
2022/09/04 05:11:48;;;;;;;4.47;4.03;;;12.70;99.90;;;;;;5043615;28;20039;-75
2022/09/04 05:14:24;;;;;;;4.38;3.97;;;12.80;99.90;;;;;;5053055;28;20021;-75
2022/09/04 05:17:05;;;;;;;3.95;3.60;;;12.90;99.90;;;;;;5064587;28;20459;-74
2022/09/04 05:19:53;;;;;;;4.35;3.53;;;12.90;99.90;;;;;;5053717;28;20047;-74
2022/09/04 05:22:37;;;;;;;4.07;3.35;;;13.00;99.90;;;;;;5053824;28;20033;-74
2022/09/04 05:25:13;;;;;;;4.70;3.83;;;13.10;99.90;;;;;;5064692;28;20039;-74
2022/09/04 05:27:42;;;;;;;4.70;4.10;;;13.30;99.90;;;;;;5075795;28;20031;-74
2022/09/04 05:30:18;;;;;;;4.43;4.03;;;13.40;99.90;;;;;;5062721;28;20036;-75
2022/09/04 05:33:03;;;;;;;4.60;4.20;;;13.50;99.90;;;;;;5031640;28;20103;-75
2022/09/04 05:35:41;;;;;;;5.97;4.50;;;13.70;99.90;;;;;;5013518;28;20380;-76
2022/09/04 05:38:19;;;;;;;5.20;3.70;;;13.80;99.90;;;;;;5024512;28;20022;-77
2022/09/04 05:41:05;;;;;;;5.18;3.58;;;13.90;99.90;;;;;;5049606;28;20056;-77
2022/09/04 05:43:43;;;;;;;6.32;4.05;;;14.00;99.90;;;;;;5019414;28;20072;-77
2022/09/04 05:46:38;;;;;;;4.25;3.50;;;14.10;99.90;;;;;;5018606;28;20028;-77
2022/09/04 05:49:37;;;;;;;5.93;3.92;;;14.20;99.90;;;;;;5033892;28;20037;-76
2022/09/04 05:52:40;;;;;;;6.47;4.50;;;14.30;99.90;;;;;;5039112;28;20036;-77
2022/09/04 05:55:30;;;;;;;5.18;3.80;;;14.40;99.90;;;;;;5018536;28;20259;-77
2022/09/04 05:58:16;;;;;;;4.22;3.83;;;14.50;99.90;;;;;;5019005;28;20018;-77
2022/09/04 06:00:53;;;;;;;4.50;3.80;;;14.50;99.90;;;;;;5017958;28;20022;-76
2022/09/04 06:03:29;;;;;;;6.35;4.25;;;14.70;99.90;;;;;;5029970;28;20021;-77
2022/09/04 06:06:06;;;;;;;4.35;3.85;;;14.80;99.90;;;;;;5039314;28;20025;-76
2022/09/04 06:09:08;;;;;;;4.65;4.18;;;14.80;99.90;;;;;;5039060;28;20022;-77
2022/09/04 06:11:43;;;;;;;5.63;4.00;;;15.00;99.90;;;;;;5039265;28;20081;-77
2022/09/04 06:14:17;;;;;;;4.22;3.70;;;15.20;99.90;;;;;;5060597;28;20043;-76
2022/09/04 06:17:06;;;;;;;4.88;4.15;;;15.20;99.90;;;;;;5060639;28;20036;-76
2022/09/04 06:20:10;;;;;;;7.97;4.07;;;15.40;99.90;;;;;;5048608;28;20109;-77
2022/09/04 06:23:22;;;;;;;4.20;3.70;;;15.50;99.90;;;;;;5038050;28;20044;-77
2022/09/04 06:25:58;;;;;;;5.97;3.60;;;15.80;99.90;;;;;;4942529;29;20032;-77
2022/09/04 06:28:24;;;;;;;3.70;3.40;;;15.60;99.90;;;;;;4945321;29;20084;-77
2022/09/04 06:31:19;;;;;;;5.90;3.55;;;15.80;99.90;;;;;;5013342;28;20067;-77
2022/09/04 06:33:58;;;;;;;4.80;3.67;;;15.90;99.90;;;;;;5037401;28;20041;-77
2022/09/04 06:36:34;;;;;;;9.05;4.10;;;16.10;99.90;;;;;;5058614;28;20104;-77
2022/09/04 06:39:15;;;;;;;4.28;3.58;;;16.20;99.90;;;;;;5060575;28;20032;-78
2022/09/04 06:42:03;;;;;;;3.88;3.47;;;16.30;99.90;;;;;;5081826;28;20040;-77
2022/09/04 06:44:54;;;;;;;4.80;3.92;;;16.50;99.90;;;;;;5082716;28;20150;-77
2022/09/04 06:47:48;;;;;;;4.13;3.72;;;16.90;99.90;;;;;;5080235;28;20382;-77
2022/09/04 06:50:30;;;;;;;7.53;4.40;;;18.80;99.90;;;;;;5051777;28;20062;-77
2022/09/04 06:53:06;;;;;;;4.97;3.70;;;22.00;99.90;;;;;;5070798;28;20048;-77
2022/09/04 06:55:48;;;;;;;6.32;3.78;;;24.20;99.90;;;;;;5062935;28;20017;-77
2022/09/04 06:58:42;;;;;;;4.65;3.28;;;25.70;99.90;;;;;;5042256;28;20029;-77
2022/09/04 07:01:59;;;;;;;4.20;3.60;;;24.40;99.90;;;;;;5052846;28;20051;-78
2022/09/04 07:04:35;;;;;;;3.72;3.40;;;25.00;99.90;;;;;;5022399;28;20044;-77
2022/09/04 07:07:16;;;;;;;3.83;3.42;;;26.70;99.90;;;;;;5046350;28;20039;-77
2022/09/04 07:09:47;;;;;;;4.72;3.50;;;25.90;99.90;;;;;;5063383;28;20055;-77
2022/09/04 07:12:27;;;;;;;4.50;3.65;;;26.90;99.90;;;;;;5068195;28;20040;-78
2022/09/04 07:15:37;;;;;;;4.13;3.42;;;26.10;99.90;;;;;;5085739;28;20494;-78
2022/09/04 07:18:21;;;;;;;4.25;3.30;;;27.80;99.90;;;;;;5074198;28;20043;-78
2022/09/04 07:21:11;;;;;;;5.07;3.22;;;27.80;99.90;;;;;;5044190;28;20053;-78
2022/09/04 07:23:43;;;;;;;3.50;3.20;;;29.50;99.90;;;;;;5061070;28;20395;-79
2022/09/04 07:26:09;;;;;;;5.75;3.10;;;30.30;99.90;;;;;;5065570;28;20086;-78
2022/09/04 07:28:55;;;;;;;5.82;3.53;;;31.60;99.90;;;;;;5068267;28;20356;-78
2022/09/04 07:31:42;;;;;;;3.67;3.30;;;32.60;97.30;;;;;;5080831;28;20059;-78
2022/09/04 07:34:30;;;;;;;4.18;3.60;;;34.50;95.10;;;;;;5063142;28;20045;-78
2022/09/04 07:37:13;;;;;;;3.72;3.35;;;34.90;88.40;;;;;;5078437;28;20116;-78
2022/09/04 07:39:49;;;;;;;5.10;3.40;;;35.00;87.30;;;;;;5066503;28;20087;-78
2022/09/04 07:42:38;;;;;;;3.78;3.40;;;35.00;81.50;;;;;;5067997;28;20033;-78
2022/09/04 07:45:49;;;;;;;4.18;3.80;;;36.10;78.70;;;;;;5080880;28;20019;-78
2022/09/04 07:48:24;;;;;;;4.47;3.95;;;36.30;73.80;;;;;;5087441;28;20047;-78
2022/09/04 07:51:03;;;;;;;4.50;4.00;;;35.90;72.90;;;;;;5087404;28;20031;-78
2022/09/04 07:54:03;;;;;;;4.30;3.80;;;36.20;68.70;;;;;;5071929;28;20406;-78
2022/09/04 07:57:07;;;;;;;4.38;4.00;;;37.10;67.80;;;;;;5072621;28;20025;-79
2022/09/04 08:00:00;;;;;;;4.97;4.50;;;36.40;64.10;;;;;;5049637;28;20041;-79
2022/09/04 08:02:44;;;;;;;4.80;4.30;;;34.80;63.10;;;;;;5067356;28;20029;-78
2022/09/04 08:05:20;;;;;;;4.90;4.40;;;36.80;64.10;;;;;;5081440;28;20021;-79
2022/09/04 08:08:14;;;;;;;5.63;4.80;;;37.00;63.80;;;;;;5083329;28;20570;-78
2022/09/04 08:11:10;;;;;;;6.07;5.13;;;37.70;62.40;;;;;;5085748;28;20104;-79
2022/09/04 08:14:10;;;;;;;5.60;5.10;;;35.80;60.70;;;;;;5088961;28;20033;-79
2022/09/04 08:16:55;;;;;;;5.57;5.03;;;37.10;60.10;;;;;;5071862;28;20119;-79
2022/09/04 08:19:28;;;;;;;6.82;5.65;;;38.80;55.90;;;;;;5065890;28;20012;-79
2022/09/04 08:21:55;;;;;;;6.22;5.65;;;37.80;57.90;;;;;;5089405;28;20041;-80
2022/09/04 08:24:43;;;;;;;6.50;5.30;;;37.50;56.10;;;;;;5090811;28;20054;-79
2022/09/04 08:27:22;;;;;;;5.82;5.28;;;38.80;55.00;;;;;;5073079;28;20036;-79
2022/09/04 08:30:03;;;;;;;6.35;5.72;;;39.80;51.20;;;;;;5070006;28;20084;-79
2022/09/04 08:32:47;;;;;;;11.27;6.03;;;35.80;51.00;;;;;;5068176;28;20024;-79
2022/09/04 08:35:54;;;;;;;7.85;5.60;;;35.50;53.30;;;;;;5067103;28;20036;-79
2022/09/04 08:38:26;;;;;;;5.72;5.22;;;38.50;53.80;;;;;;5069092;28;20391;-80
2022/09/04 08:41:09;;;;;;;6.65;5.93;;;39.70;51.60;;;;;;5082507;28;20013;-80
2022/09/04 08:43:38;;;;;;;6.43;5.88;;;39.50;48.50;;;;;;5092671;28;20406;-78
2022/09/04 08:46:30;;;;;;;6.43;5.82;;;37.20;49.10;;;;;;5074818;28;20044;-79
2022/09/04 08:49:38;;;;;;;6.72;5.82;;;38.00;49.00;;;;;;5081883;28;20028;-79
2022/09/04 08:52:35;;;;;;;8.45;6.32;;;38.30;49.60;;;;;;5049552;28;20009;-80
2022/09/04 08:55:06;;;;;;;7.30;6.05;;;39.60;47.90;;;;;;5050743;28;20030;-80
2022/09/04 08:58:04;;;;;;;6.90;6.28;;;38.00;46.20;;;;;;5050651;28;20022;-79
2022/09/04 09:00:49;;;;;;;6.30;5.68;;;36.40;47.90;;;;;;5064494;28;20025;-80
2022/09/04 09:03:43;;;;;;;8.50;6.15;;;37.30;49.20;;;;;;5090857;28;20052;-79
2022/09/04 09:06:50;;;;;;;6.55;5.95;;;33.90;48.80;;;;;;5086154;28;20036;-79
2022/09/04 09:09:31;;;;;;;6.88;6.18;;;34.50;51.40;;;;;;5072931;28;20029;-79
2022/09/04 09:12:21;;;;;;;5.82;5.30;;;35.70;51.00;;;;;;5086988;28;20025;-79
2022/09/04 09:15:32;;;;;;;6.68;5.68;;;38.80;50.80;;;;;;5084774;28;20025;-79
2022/09/04 09:18:01;;;;;;;5.60;5.10;;;36.60;50.50;;;;;;5062009;28;20048;-79
2022/09/04 09:20:48;;;;;;;5.72;5.20;;;33.50;51.10;;;;;;5084897;28;20069;-80
2022/09/04 09:23:20;;;;;;;5.40;4.88;;;35.90;52.20;;;;;;5073167;28;20084;-79
2022/09/04 09:26:05;;;;;;;5.78;5.25;;;38.00;50.90;;;;;;5082786;28;20032;-78
2022/09/04 09:28:53;;;;;;;6.78;5.22;;;36.60;50.80;;;;;;5081141;28;20028;-80
2022/09/04 09:31:41;;;;;;;5.85;5.20;;;37.00;49.70;;;;;;5079242;28;20050;-80
2022/09/04 09:34:41;;;;;;;6.50;5.53;;;38.20;49.00;;;;;;5060786;28;20071;-80
2022/09/04 09:37:42;;;;;;;5.55;5.10;;;37.70;48.60;;;;;;5066921;28;20012;-79
2022/09/04 09:40:46;;;;;;;5.22;4.82;;;35.90;47.80;;;;;;5069157;28;20068;-79
2022/09/04 09:43:25;;;;;;;6.68;5.03;;;36.30;49.50;;;;;;5077395;28;20151;-80
2022/09/04 09:46:22;;;;;;;5.22;4.75;;;38.10;47.40;;;;;;5079187;28;20021;-79
2022/09/04 09:49:03;;;;;;;5.55;5.05;;;35.00;47.30;;;;;;5073725;28;20023;-79
2022/09/04 09:51:59;;;;;;;5.03;4.53;;;35.70;49.70;;;;;;5072072;28;20060;-79
2022/09/04 09:55:02;;;;;;;4.80;4.40;;;32.20;50.10;;;;;;5088340;28;20050;-79
2022/09/04 09:57:55;;;;;;;5.47;4.35;;;31.80;53.10;;;;;;5078363;28;20013;-78
2022/09/04 10:00:24;;;;;;;5.60;5.10;;;33.80;54.10;;;;;;5081569;28;20024;-81
2022/09/04 10:03:17;;;;;;;4.93;4.20;;;35.80;51.50;;;;;;5072837;28;20060;-81
2022/09/04 10:06:05;;;;;;;4.22;3.83;;;34.40;48.90;;;;;;5086757;28;20037;-79
2022/09/04 10:08:53;;;;;;;4.20;3.90;;;33.00;51.00;;;;;;5073635;28;20037;-79
2022/09/04 10:12:06;;;;;;;4.03;3.70;;;34.90;52.70;;;;;;5039844;28;20100;-80
2022/09/04 10:15:09;;;;;;;4.28;3.88;;;34.60;52.90;;;;;;5083602;28;20033;-79
2022/09/04 10:18:05;;;;;;;4.90;3.95;;;35.70;51.20;;;;;;5059498;28;20072;-80
2022/09/04 10:20:58;;;;;;;4.18;3.78;;;34.20;49.60;;;;;;5090706;28;20032;-80
2022/09/04 10:24:09;;;;;;;4.20;3.80;;;34.90;52.00;;;;;;5080414;28;20029;-79
2022/09/04 10:27:00;;;;;;;5.10;4.07;;;32.30;51.90;;;;;;5093384;28;20016;-79
2022/09/04 10:29:47;;;;;;;4.18;3.63;;;33.70;54.20;;;;;;5094195;28;20012;-80
2022/09/04 10:32:21;;;;;;;4.00;3.60;;;31.90;53.10;;;;;;5084982;28;20628;-81
2022/09/04 10:34:59;;;;;;;4.20;3.67;;;34.60;54.40;;;;;;5053017;28;20037;-79
2022/09/04 10:37:58;;;;;;;3.63;3.30;;;35.50;52.70;;;;;;5071595;28;20038;-79
2022/09/04 10:40:38;;;;;;;4.15;3.72;;;35.70;52.50;;;;;;5070048;28;20017;-79
2022/09/04 10:43:10;;;;;;;3.67;3.20;;;36.30;52.10;;;;;;5093824;28;20020;-79
2022/09/04 10:45:57;;;;;;;4.28;3.22;;;35.80;50.30;;;;;;5082580;28;20014;-79
2022/09/04 10:48:25;;;;;;;4.43;3.40;;;35.80;53.10;;;;;;5057523;28;20099;-80
2022/09/04 10:51:04;;;;;;;3.80;3.50;;;35.20;50.90;;;;;;5086988;28;20021;-79
2022/09/04 10:53:58;;;;;;;3.47;3.15;;;35.70;52.50;;;;;;5080637;28;20032;-79
2022/09/04 10:56:56;;;;;;;5.18;3.33;;;33.30;54.20;;;;;;5087101;28;20001;-80
2022/09/04 10:59:31;;;;;;;3.15;2.95;;;33.30;53.50;;;;;;5073185;28;20082;-81
2022/09/04 11:02:22;;;;;;;4.15;3.42;;;32.40;54.50;;;;;;5073760;28;20282;-79
2022/09/04 11:05:14;;;;;;;4.43;3.03;;;31.20;56.30;;;;;;5075282;28;20017;-80
2022/09/04 11:07:52;;;;;;;4.10;2.95;;;30.20;57.60;;;;;;5087994;28;20017;-80
2022/09/04 11:10:35;;;;;;;3.42;3.13;;;30.90;59.40;;;;;;5074271;28;20021;-79
2022/09/04 11:13:32;;;;;;;3.38;3.08;;;31.50;59.70;;;;;;5074035;28;20029;-79
2022/09/04 11:16:08;;;;;;;4.82;3.30;;;31.20;59.00;;;;;;5068413;28;20084;-79
2022/09/04 11:19:25;;;;;;;3.50;3.20;;;30.40;59.80;;;;;;5077479;28;20068;-80
2022/09/04 11:22:24;;;;;;;2.83;2.63;;;30.30;61.40;;;;;;5044770;28;20061;-80
2022/09/04 11:24:51;;;;;;;;;;;30.60;62.70;;;;;;5075554;28;20040;-79
2022/09/04 11:27:19;;;;;;;7.38;2.90;;;29.50;62.40;;;;;;5068839;28;19947;-79
2022/09/04 11:30:03;;;;;;;3.42;3.13;;;29.10;64.20;;;;;;5081159;28;20084;-79
2022/09/04 11:32:34;;;;;;;4.38;3.05;;;29.20;64.60;;;;;;5083951;28;20067;-79
2022/09/04 11:35:18;;;;;;;4.15;3.20;;;29.40;67.20;;;;;;5054306;28;20033;-80
2022/09/04 11:38:03;;;;;;;4.18;2.97;;;30.20;67.10;;;;;;5072540;28;20032;-79
2022/09/04 11:40:54;;;;;;;3.20;2.90;;;29.40;67.10;;;;;;5064968;28;20021;-79
2022/09/04 11:44:01;;;;;;;2.95;2.63;;;28.80;67.60;;;;;;5096720;28;20024;-80
2022/09/04 11:46:50;;;;;;;3.97;2.90;;;29.50;69.20;;;;;;5083664;28;20009;-79
2022/09/04 11:49:47;;;;;;;4.60;3.00;;;29.50;69.90;;;;;;5096453;28;20037;-79
2022/09/04 11:52:50;;;;;;;3.55;3.25;;;30.50;70.60;;;;;;5090026;28;20037;-79
2022/09/04 11:55:38;;;;;;;3.60;3.17;;;29.90;68.50;;;;;;5086159;28;20081;-80
2022/09/04 11:58:39;;;;;;;3.70;2.75;;;29.50;70.70;;;;;;5063449;28;20032;-78
2022/09/04 12:01:18;;;;;;;3.30;3.00;;;29.50;71.10;;;;;;5090733;28;20017;-79
2022/09/04 12:04:11;;;;;;;4.13;3.60;;;30.00;70.70;;;;;;5078212;28;20087;-79
2022/09/04 12:07:14;;;;;;;4.43;3.20;;;30.10;71.00;;;;;;5078384;28;20068;-80
2022/09/04 12:10:12;;;;;;;3.72;3.45;;;28.70;71.70;;;;;;5087753;28;20082;-79
2022/09/04 12:12:47;;;;;;;3.60;3.13;;;29.40;73.30;;;;;;5077035;28;20029;-79
2022/09/04 12:15:32;;;;;;;3.40;3.10;;;28.90;73.10;;;;;;5077567;28;20052;-80
2022/09/04 12:18:07;;;;;;;3.47;3.03;;;29.40;73.30;;;;;;5075504;28;20033;-79
2022/09/04 12:21:24;;;;;;;2.85;2.60;;;29.60;73.50;;;;;;5089009;28;20028;-79
2022/09/04 12:24:08;;;;;;;4.85;3.33;;;30.50;74.20;;;;;;5057168;28;20037;-79
2022/09/04 12:26:59;;;;;;;3.45;2.92;;;29.60;73.30;;;;;;5091227;28;20024;-79
2022/09/04 12:29:37;;;;;;;4.30;3.90;;;30.10;73.60;;;;;;5087742;28;20024;-78
2022/09/04 12:32:24;;;;;;;4.38;4.00;;;29.90;72.60;;;;;;5090838;28;20058;-79
2022/09/04 12:34:59;;;;;;;4.13;3.45;;;30.10;73.00;;;;;;5088559;28;20040;-79
2022/09/04 12:37:49;;;;;;;3.65;3.35;;;29.80;72.50;;;;;;5075636;28;20021;-79
2022/09/04 12:40:47;;;;;;;3.92;3.63;;;30.50;75.60;;;;;;5083266;28;20042;-79
2022/09/04 12:43:49;;;;;;;3.90;3.50;;;30.40;71.90;;;;;;5083188;28;20040;-79
2022/09/04 12:46:47;;;;;;;4.03;3.63;;;31.20;72.60;;;;;;5092865;28;20092;-79
2022/09/04 12:49:37;;;;;;;4.32;3.95;;;31.40;71.70;;;;;;5058257;28;20047;-79
2022/09/04 12:52:32;;;;;;;4.78;4.20;;;30.60;70.10;;;;;;5085140;28;20032;-79
2022/09/04 12:55:07;;;;;;;5.13;3.20;;;30.70;70.80;;;;;;5074893;28;20025;-79
2022/09/04 12:57:45;;;;;;;4.82;3.63;;;30.70;71.50;;;;;;5077413;28;20541;-79
2022/09/04 13:00:15;;;;;;;5.18;4.03;;;30.80;71.10;;;;;;5084187;28;20009;-80
2022/09/04 13:02:59;;;;;;;4.40;4.00;;;31.10;70.50;;;;;;5071214;28;20036;-79
2022/09/04 13:05:47;;;;;;;4.75;4.35;;;30.40;74.40;;;;;;5089499;28;20497;-79
2022/09/04 13:08:39;;;;;;;5.10;4.45;;;30.70;71.00;;;;;;5085259;28;20052;-79
2022/09/04 13:11:21;;;;;;;4.03;3.65;;;30.50;70.80;;;;;;5069264;28;20024;-79
2022/09/04 13:14:03;;;;;;;4.10;3.70;;;30.90;71.50;;;;;;5077241;28;20033;-80
2022/09/04 13:16:44;;;;;;;4.60;3.40;;;30.40;71.90;;;;;;5083807;28;20018;-80
2022/09/04 13:20:00;;;;;;;6.05;3.20;;;30.80;71.20;;;;;;5094368;28;20028;-81
2022/09/04 13:22:55;;;;;;;4.93;4.53;;;31.60;71.50;;;;;;5062786;28;20048;-80
2022/09/04 13:25:29;;;;;;;4.35;3.20;;;31.40;70.80;;;;;;5080796;28;20076;-81
2022/09/04 13:28:34;;;;;;;4.28;3.28;;;31.30;71.10;;;;;;5084738;28;20021;-80
2022/09/04 13:31:18;;;;;;;4.38;3.80;;;31.50;73.70;;;;;;5067244;28;20182;-79
2022/09/04 13:34:00;;;;;;;3.58;3.38;;;31.30;70.20;;;;;;5089285;28;20049;-81
2022/09/04 13:36:48;;;;;;;4.72;3.75;;;31.80;70.70;;;;;;5058462;28;20017;-82
2022/09/04 13:39:32;;;;;;;7.93;3.80;;;31.70;69.10;;;;;;5054009;28;20017;-82
2022/09/04 13:42:19;;;;;;;4.68;4.28;;;31.30;69.20;;;;;;5053514;28;20282;-82
2022/09/04 13:45:11;;;;;;;4.15;3.85;;;31.20;67.80;;;;;;5053638;28;20029;-82
2022/09/04 13:48:04;;;;;;;6.32;4.30;;;30.80;69.00;;;;;;5053427;28;20025;-81
2022/09/04 13:50:41;;;;;;;3.92;3.53;;;30.30;68.60;;;;;;5053725;28;20459;-82
2022/09/04 13:53:19;;;;;;;4.13;3.83;;;29.80;69.30;;;;;;5053818;28;20361;-82
2022/09/04 13:55:56;;;;;;;4.35;4.05;;;29.80;70.20;;;;;;5053645;28;20071;-81
2022/09/04 13:58:33;;;;;;;3.80;3.50;;;29.60;69.70;;;;;;5053791;28;20524;-81
2022/09/04 14:01:05;;;;;;;4.13;3.50;;;29.60;69.70;;;;;;5053498;28;20021;-81
2022/09/04 14:03:36;;;;;;;5.40;3.83;;;30.00;70.60;;;;;;5035379;28;20115;-81
2022/09/04 14:06:04;;;;;;;4.32;3.92;;;30.50;70.40;;;;;;5053724;28;20025;-81
2022/09/04 14:08:33;;;;;;;4.25;3.90;;;30.60;70.60;;;;;;5053723;28;20503;-81
2022/09/04 14:11:38;;;;;;;4.72;4.30;;;30.20;70.40;;;;;;5032505;28;20029;-80
2022/09/04 14:14:29;;;;;;;4.43;3.63;;;30.60;69.70;;;;;;5032269;28;20057;-79
2022/09/04 14:16:57;;;;;;;4.18;3.67;;;30.70;70.10;;;;;;5047623;28;20478;-79
2022/09/04 14:19:41;;;;;;;3.85;3.55;;;30.60;69.70;;;;;;5052188;28;20017;-79
2022/09/04 14:22:36;;;;;;;4.05;3.72;;;30.80;69.60;;;;;;5051834;28;20025;-79
2022/09/04 14:25:01;;;;;;;3.67;3.40;;;30.50;69.20;;;;;;5051685;28;20021;-80